Time;durP1;ratioP1;P1;durP2;ratioP2;P2;SDS_P1;SDS_P2;PMS_P1;PMS_P2;Temp;Humidity;BMP_temperature;BMP_pressure;BME280_temperature;BME280_humidity;BME280_pressure;Samples;Min_cycle;Max_cycle;Signal;HPM_P1;HPM_P2
2023/07/03 00:00:11;;;;;;;19.92;7.70;;;19.10;99.90;;;;;;5080497;28;20032;-70
2023/07/03 00:02:36;;;;;;;20.58;7.40;;;19.00;99.90;;;;;;5079165;28;20115;-70
2023/07/03 00:05:03;;;;;;;23.35;7.30;;;19.00;99.90;;;;;;5079542;28;20044;-70
2023/07/03 00:07:28;;;;;;;19.58;6.68;;;19.10;99.90;;;;;;5078906;28;20028;-70
2023/07/03 00:09:54;;;;;;;16.05;6.30;;;19.00;99.90;;;;;;5079355;28;20031;-70
2023/07/03 00:12:20;;;;;;;20.33;7.30;;;19.00;99.90;;;;;;5079739;28;20028;-70
2023/07/03 00:14:45;;;;;;;26.10;7.93;;;19.00;99.90;;;;;;5079220;28;20020;-70
2023/07/03 00:17:11;;;;;;;17.27;6.93;;;18.90;99.90;;;;;;5078922;28;20027;-70
2023/07/03 00:19:36;;;;;;;21.27;7.78;;;18.90;99.90;;;;;;5079204;28;20042;-70
2023/07/03 00:22:02;;;;;;;17.70;6.68;;;18.90;99.90;;;;;;5079019;28;20024;-70
2023/07/03 00:24:29;;;;;;;19.67;7.35;;;18.90;99.90;;;;;;5079115;28;20025;-69
2023/07/03 00:26:55;;;;;;;19.27;7.18;;;18.80;99.90;;;;;;5078947;28;20025;-70
2023/07/03 00:29:21;;;;;;;17.77;6.75;;;18.80;99.90;;;;;;5078772;28;20032;-70
2023/07/03 00:31:47;;;;;;;22.63;8.20;;;18.80;99.90;;;;;;5078764;28;20025;-70
2023/07/03 00:34:12;;;;;;;14.52;6.57;;;18.70;99.90;;;;;;5079562;28;20031;-70
2023/07/03 00:36:38;;;;;;;17.92;6.53;;;18.70;99.90;;;;;;5077979;28;20020;-70
2023/07/03 00:39:04;;;;;;;19.67;7.75;;;18.80;99.90;;;;;;5078877;28;20024;-70
2023/07/03 00:41:31;;;;;;;20.95;7.70;;;18.60;99.90;;;;;;5079302;28;20029;-70
2023/07/03 00:43:56;;;;;;;21.88;7.53;;;18.60;99.90;;;;;;5078419;28;20091;-69
2023/07/03 00:46:22;;;;;;;20.17;7.13;;;18.60;99.90;;;;;;5079442;28;20146;-70
2023/07/03 00:48:47;;;;;;;21.00;8.07;;;18.50;99.90;;;;;;5079561;28;20099;-70
2023/07/03 00:51:14;;;;;;;17.85;7.18;;;18.50;99.90;;;;;;5078445;28;20020;-70
2023/07/03 00:53:40;;;;;;;19.10;7.20;;;18.50;99.90;;;;;;5078614;28;20032;-69
2023/07/03 00:56:06;;;;;;;20.23;7.43;;;18.50;99.90;;;;;;5078358;28;20028;-69
2023/07/03 00:58:32;;;;;;;24.88;7.82;;;18.50;99.90;;;;;;5078596;28;20115;-70
2023/07/03 01:01:10;;;;;;;20.55;7.22;;;18.40;99.90;;;;;;5079135;28;20025;-69
2023/07/03 01:03:41;;;;;;;20.98;7.72;;;18.40;99.90;;;;;;5078283;28;20028;-70
2023/07/03 01:06:09;;;;;;;;;;;18.30;99.90;;;;;;5079315;28;20042;-70
2023/07/03 01:08:36;;;;;;;22.13;7.07;;;18.30;99.90;;;;;;5078266;28;19908;-70
2023/07/03 01:11:02;;;;;;;19.77;6.78;;;18.30;99.90;;;;;;5078160;28;20044;-70
2023/07/03 01:13:29;;;;;;;18.55;6.60;;;18.20;99.90;;;;;;5078390;28;20017;-70
2023/07/03 01:15:56;;;;;;;18.65;6.45;;;18.10;99.90;;;;;;5077940;28;20025;-70
2023/07/03 01:18:22;;;;;;;20.33;6.55;;;18.10;99.90;;;;;;5078118;28;20031;-69
2023/07/03 01:21:02;;;;;;;22.27;7.22;;;18.10;99.90;;;;;;5078140;28;20021;-69
2023/07/03 01:23:33;;;;;;;17.80;6.63;;;18.10;99.90;;;;;;5078795;28;20051;-69
2023/07/03 01:26:00;;;;;;;12.90;5.40;;;18.00;99.90;;;;;;5078531;28;20048;-70
2023/07/03 01:28:27;;;;;;;18.80;7.05;;;18.10;99.90;;;;;;5078726;28;20048;-69
2023/07/03 01:30:55;;;;;;;15.15;5.63;;;18.10;99.90;;;;;;5080795;28;20028;-69
2023/07/03 01:33:26;;;;;;;17.42;5.22;;;18.00;99.90;;;;;;5078539;28;20017;-69
2023/07/03 01:35:53;;;;;;;16.38;5.32;;;18.00;99.90;;;;;;5077505;28;20074;-69
2023/07/03 01:38:21;;;;;;;15.98;5.80;;;17.90;99.90;;;;;;5077461;28;20028;-69
2023/07/03 01:40:47;;;;;;;16.63;5.55;;;17.80;99.90;;;;;;5077299;28;20031;-69
2023/07/03 01:43:13;;;;;;;17.83;6.63;;;17.80;99.90;;;;;;5077274;28;20119;-69
2023/07/03 01:45:44;;;;;;;17.10;5.38;;;17.80;99.90;;;;;;5077552;28;20111;-69
2023/07/03 01:48:11;;;;;;;24.17;5.95;;;17.80;99.90;;;;;;5077593;28;20055;-69
2023/07/03 01:50:38;;;;;;;28.33;6.47;;;17.80;99.90;;;;;;5077161;28;20036;-69
2023/07/03 01:53:15;;;;;;;20.35;6.28;;;17.80;99.90;;;;;;5077188;28;20035;-70
2023/07/03 01:55:46;;;;;;;15.23;5.32;;;17.90;99.90;;;;;;5077913;28;20107;-70
2023/07/03 01:58:18;;;;;;;18.98;5.22;;;17.90;99.90;;;;;;5077302;28;20091;-69
2023/07/03 02:00:51;;;;;;;19.73;5.35;;;17.80;99.90;;;;;;5077942;28;20025;-70
2023/07/03 02:03:23;;;;;;;19.98;5.25;;;17.80;99.90;;;;;;5077076;28;20021;-70
2023/07/03 02:05:50;;;;;;;16.35;5.93;;;17.80;99.90;;;;;;5076971;28;20027;-69
2023/07/03 02:08:18;;;;;;;19.65;5.72;;;17.70;99.90;;;;;;5077610;28;20029;-69
2023/07/03 02:10:44;;;;;;;20.98;4.70;;;17.70;99.90;;;;;;5076650;28;20021;-70
2023/07/03 02:13:10;;;;;;;11.32;4.05;;;17.70;99.90;;;;;;5077078;28;20030;-69
2023/07/03 02:15:35;;;;;;;18.80;4.32;;;17.70;99.90;;;;;;5077812;28;20020;-70
2023/07/03 02:18:01;;;;;;;12.88;4.40;;;17.70;99.90;;;;;;5076597;28;20032;-69
2023/07/03 02:20:27;;;;;;;16.23;4.60;;;17.70;99.90;;;;;;5076655;28;20025;-69
2023/07/03 02:22:53;;;;;;;20.52;4.13;;;17.60;99.90;;;;;;5077361;28;20025;-70
2023/07/03 02:25:19;;;;;;;15.20;3.80;;;17.60;99.90;;;;;;5076535;28;20028;-69
2023/07/03 02:27:44;;;;;;;15.20;4.30;;;17.50;99.90;;;;;;5076370;28;20031;-69
2023/07/03 02:30:11;;;;;;;14.13;3.53;;;17.50;99.90;;;;;;5077362;28;20027;-69
2023/07/03 02:32:39;;;;;;;20.65;5.03;;;17.40;99.90;;;;;;5076603;28;20021;-70
2023/07/03 02:35:06;;;;;;;14.48;4.07;;;17.40;99.90;;;;;;5076701;28;20035;-69
2023/07/03 02:37:32;;;;;;;14.30;3.80;;;17.30;99.90;;;;;;5077194;28;20031;-69
2023/07/03 02:39:57;;;;;;;19.58;4.20;;;17.30;99.90;;;;;;5076633;28;20024;-69
2023/07/03 02:42:23;;;;;;;11.82;4.22;;;17.30;99.90;;;;;;5076384;28;20028;-70
2023/07/03 02:44:48;;;;;;;12.73;3.78;;;17.30;99.90;;;;;;5076558;28;20020;-69
2023/07/03 02:47:14;;;;;;;13.32;3.78;;;17.30;99.90;;;;;;5077081;28;20107;-69
2023/07/03 02:49:40;;;;;;;13.05;4.22;;;17.20;99.90;;;;;;5076198;28;20025;-70
2023/07/03 02:52:06;;;;;;;12.60;3.70;;;17.20;99.90;;;;;;5075972;28;20024;-69
2023/07/03 02:54:32;;;;;;;18.60;3.85;;;17.10;99.90;;;;;;5076646;28;20032;-69
2023/07/03 02:56:57;;;;;;;11.15;4.13;;;17.20;99.90;;;;;;5076944;28;20024;-70
2023/07/03 02:59:23;;;;;;;10.07;3.22;;;17.00;99.90;;;;;;5075888;28;20028;-69
2023/07/03 03:01:49;;;;;;;14.40;4.03;;;17.00;99.90;;;;;;5076247;28;20024;-69
2023/07/03 03:04:16;;;;;;;15.55;3.75;;;17.00;99.90;;;;;;5076956;28;20024;-69
2023/07/03 03:06:42;;;;;;;17.38;3.65;;;17.00;99.90;;;;;;5075946;28;20027;-69
2023/07/03 03:09:09;;;;;;;13.63;3.45;;;16.90;99.90;;;;;;5075947;28;20021;-69
2023/07/03 03:11:35;;;;;;;14.38;3.55;;;16.90;99.90;;;;;;5075950;28;20021;-69
2023/07/03 03:14:01;;;;;;;22.15;4.20;;;16.80;99.90;;;;;;5076823;28;20145;-69
2023/07/03 03:16:27;;;;;;;13.70;3.10;;;16.80;99.90;;;;;;5076187;28;20039;-69
2023/07/03 03:18:52;;;;;;;15.10;3.45;;;16.80;99.90;;;;;;5076056;28;20024;-69
2023/07/03 03:21:18;;;;;;;16.02;3.75;;;16.80;99.90;;;;;;5076928;28;20028;-69
2023/07/03 03:23:43;;;;;;;13.82;3.50;;;16.80;99.90;;;;;;5075793;28;20028;-69
2023/07/03 03:26:09;;;;;;;14.90;3.67;;;16.90;99.90;;;;;;5076248;28;20024;-69
2023/07/03 03:28:35;;;;;;;15.90;4.82;;;16.90;99.90;;;;;;5075959;28;20031;-69
2023/07/03 03:31:00;;;;;;;13.38;3.80;;;16.90;99.90;;;;;;5075834;28;20100;-70
2023/07/03 03:33:26;;;;;;;10.55;3.30;;;16.90;99.90;;;;;;5076088;28;20029;-69
2023/07/03 03:35:51;;;;;;;15.52;3.90;;;16.90;99.90;;;;;;5076827;28;20012;-69
2023/07/03 03:38:17;;;;;;;10.77;3.95;;;16.90;99.90;;;;;;5076780;28;20020;-69
2023/07/03 03:41:00;;;;;;;16.27;4.15;;;17.00;99.90;;;;;;5075789;28;20021;-69
2023/07/03 03:43:26;;;;;;;15.25;3.78;;;17.00;99.90;;;;;;5076442;28;20075;-69
2023/07/03 03:45:56;;;;;;;15.88;4.20;;;17.00;99.90;;;;;;5075920;28;20029;-69
2023/07/03 03:48:22;;;;;;;20.10;4.45;;;17.00;99.90;;;;;;5075608;28;20094;-69
2023/07/03 03:50:48;;;;;;;15.57;4.28;;;17.00;99.90;;;;;;5075889;28;20017;-69
2023/07/03 03:53:14;;;;;;;17.55;4.35;;;17.00;99.90;;;;;;5075791;28;20066;-69
2023/07/03 03:55:40;;;;;;;14.57;4.40;;;16.90;99.90;;;;;;5076142;28;20028;-69
2023/07/03 03:58:05;;;;;;;17.25;4.32;;;16.90;99.90;;;;;;5075473;28;20025;-69
2023/07/03 04:00:31;;;;;;;15.80;4.22;;;16.80;99.90;;;;;;5075868;28;20040;-69
2023/07/03 04:02:57;;;;;;;10.88;4.00;;;16.80;99.90;;;;;;5075861;28;20024;-69
2023/07/03 04:05:22;;;;;;;17.30;4.28;;;16.80;99.90;;;;;;5075764;28;20020;-70
2023/07/03 04:07:47;;;;;;;16.45;4.03;;;16.80;99.90;;;;;;5075821;28;20024;-69
2023/07/03 04:10:13;;;;;;;14.95;4.22;;;16.80;99.90;;;;;;5075324;28;20039;-69
2023/07/03 04:12:39;;;;;;;19.88;4.75;;;16.70;99.90;;;;;;5078143;28;20016;-69
2023/07/03 04:15:05;;;;;;;15.48;4.75;;;16.70;99.90;;;;;;5079120;28;20096;-69
2023/07/03 04:17:31;;;;;;;13.57;4.13;;;16.60;99.90;;;;;;5079109;28;20020;-69
2023/07/03 04:19:56;;;;;;;12.45;3.95;;;16.60;99.90;;;;;;5078924;28;20021;-69
2023/07/03 04:22:22;;;;;;;13.85;3.80;;;16.50;99.90;;;;;;5078809;28;20029;-69
2023/07/03 04:24:48;;;;;;;18.40;4.40;;;16.30;99.90;;;;;;5079153;28;20021;-69
2023/07/03 04:27:14;;;;;;;20.45;4.32;;;16.30;99.90;;;;;;5078831;28;20115;-69
2023/07/03 04:29:40;;;;;;;15.35;4.25;;;16.30;99.90;;;;;;5079093;28;20102;-69
2023/07/03 04:32:06;;;;;;;13.93;3.67;;;16.20;99.90;;;;;;5079709;28;20021;-69
2023/07/03 04:34:32;;;;;;;9.50;3.78;;;16.30;99.90;;;;;;5079658;28;20023;-69
2023/07/03 04:36:57;;;;;;;13.15;4.43;;;16.30;99.90;;;;;;5078851;28;20066;-69
2023/07/03 04:39:23;;;;;;;14.38;3.97;;;16.40;99.90;;;;;;5079198;28;20025;-69
2023/07/03 04:44:16;;;;;;;18.45;4.80;;;16.50;99.90;;;;;;5018369;28;20046;-73
2023/07/03 04:46:43;;;;;;;15.68;3.60;;;16.40;99.90;;;;;;5019773;28;20025;-67
2023/07/03 04:49:11;;;;;;;17.05;4.85;;;16.40;99.90;;;;;;5019697;28;20022;-71
2023/07/03 04:51:39;;;;;;;15.73;4.53;;;16.30;99.90;;;;;;5019717;28;20018;-69
2023/07/03 04:54:05;;;;;;;13.30;4.35;;;16.40;99.90;;;;;;5038342;28;20036;-73
2023/07/03 04:56:33;;;;;;;14.15;4.35;;;16.50;99.90;;;;;;5038455;28;20021;-73
2023/07/03 04:58:59;;;;;;;20.85;3.55;;;16.60;99.90;;;;;;5039085;28;20029;-68
2023/07/03 05:01:24;;;;;;;12.95;3.70;;;16.60;99.90;;;;;;5039307;28;20120;-67
2023/07/03 05:03:50;;;;;;;16.70;3.55;;;16.60;99.90;;;;;;5038276;28;20022;-73
2023/07/03 05:06:16;;;;;;;20.17;3.05;;;16.60;99.90;;;;;;5038193;28;20022;-73
2023/07/03 05:08:41;;;;;;;11.10;3.13;;;16.60;99.90;;;;;;5038184;28;20029;-67
2023/07/03 05:11:07;;;;;;;10.15;3.10;;;16.50;99.90;;;;;;5038967;28;20140;-69
2023/07/03 05:13:33;;;;;;;14.68;3.10;;;16.60;99.90;;;;;;5037767;28;20167;-69
2023/07/03 05:15:58;;;;;;;14.48;4.22;;;16.60;99.90;;;;;;5038575;28;20032;-69
2023/07/03 05:18:24;;;;;;;15.27;3.58;;;16.60;99.90;;;;;;5037851;28;20057;-69
2023/07/03 05:20:49;;;;;;;17.08;3.95;;;16.70;99.90;;;;;;5038298;28;20017;-69
2023/07/03 05:23:15;;;;;;;10.73;2.95;;;16.80;99.90;;;;;;5038147;28;20022;-68
2023/07/03 05:25:42;;;;;;;15.98;3.85;;;16.90;99.90;;;;;;5037770;28;20036;-68
2023/07/03 05:28:08;;;;;;;14.13;3.20;;;17.00;99.90;;;;;;5037815;28;20021;-69
2023/07/03 05:30:34;;;;;;;24.08;3.75;;;17.00;99.90;;;;;;5038613;28;20022;-68
2023/07/03 05:33:00;;;;;;;11.80;3.10;;;17.00;99.90;;;;;;5038178;28;20056;-69
2023/07/03 05:35:25;;;;;;;11.35;3.15;;;16.90;99.90;;;;;;5037655;28;20052;-69
2023/07/03 05:37:51;;;;;;;20.38;4.00;;;16.80;99.90;;;;;;5038372;28;20032;-69
2023/07/03 05:40:17;;;;;;;19.55;3.85;;;16.80;99.90;;;;;;5037540;28;20072;-69
2023/07/03 05:42:43;;;;;;;13.77;3.30;;;16.90;99.90;;;;;;5037771;28;20041;-69
2023/07/03 05:45:09;;;;;;;14.00;4.10;;;16.90;99.90;;;;;;5037735;28;20036;-69
2023/07/03 05:47:35;;;;;;;13.85;3.50;;;17.00;99.90;;;;;;5038119;28;20116;-69
2023/07/03 05:50:02;;;;;;;15.85;3.85;;;17.00;99.90;;;;;;5037364;28;20159;-69
2023/07/03 05:52:28;;;;;;;14.43;3.15;;;17.10;99.90;;;;;;5037942;28;20049;-69
2023/07/03 05:54:53;;;;;;;10.93;2.90;;;17.10;99.90;;;;;;5037328;28;20028;-69
2023/07/03 05:57:20;;;;;;;13.80;3.72;;;17.10;99.90;;;;;;5037480;28;20029;-69
2023/07/03 05:59:48;;;;;;;14.38;3.15;;;17.20;99.90;;;;;;5037447;28;20017;-69
2023/07/03 06:02:14;;;;;;;17.20;3.33;;;17.10;99.90;;;;;;5037084;28;20108;-69
2023/07/03 06:04:40;;;;;;;12.63;2.75;;;17.10;99.90;;;;;;5037962;28;20051;-68
2023/07/03 06:07:07;;;;;;;17.30;3.53;;;17.20;99.90;;;;;;5037386;28;20017;-69
2023/07/03 06:09:33;;;;;;;10.82;3.20;;;17.10;99.90;;;;;;5037201;28;20132;-69
2023/07/03 06:12:00;;;;;;;10.80;3.05;;;17.10;99.90;;;;;;5037742;28;20018;-69
2023/07/03 06:14:25;;;;;;;11.32;3.15;;;17.10;99.90;;;;;;5037194;28;20040;-69
2023/07/03 06:16:52;;;;;;;10.82;2.88;;;17.10;99.90;;;;;;5037368;28;20022;-69
2023/07/03 06:19:19;;;;;;;12.75;2.80;;;17.20;99.90;;;;;;5037652;28;20108;-68
2023/07/03 06:21:46;;;;;;;12.82;2.85;;;17.20;99.90;;;;;;5037138;28;20053;-69
2023/07/03 06:24:13;;;;;;;13.40;2.70;;;17.20;99.90;;;;;;5037805;28;20089;-69
2023/07/03 06:26:40;;;;;;;15.57;3.03;;;17.30;99.90;;;;;;5036669;28;20025;-69
2023/07/03 06:29:07;;;;;;;6.03;2.35;;;17.30;99.90;;;;;;5036716;28;20129;-69
2023/07/03 06:31:33;;;;;;;7.53;2.67;;;17.40;99.90;;;;;;5037456;28;20053;-69
2023/07/03 06:33:59;;;;;;;19.95;3.50;;;17.40;99.90;;;;;;5036249;28;20032;-68
2023/07/03 06:36:25;;;;;;;14.80;2.80;;;17.30;99.90;;;;;;5037578;28;20112;-68
2023/07/03 06:38:55;;;;;;;13.25;2.58;;;17.30;99.90;;;;;;5036794;28;20108;-68
2023/07/03 06:41:22;;;;;;;13.32;2.78;;;17.40;99.90;;;;;;5036597;28;20238;-69
2023/07/03 06:43:48;;;;;;;13.68;2.53;;;17.40;99.90;;;;;;5036104;28;20037;-69
2023/07/03 06:46:14;;;;;;;8.05;2.38;;;17.40;99.90;;;;;;5036477;28;20032;-69
2023/07/03 06:48:41;;;;;;;13.20;3.28;;;17.50;99.90;;;;;;5036583;28;20029;-69
2023/07/03 06:51:08;;;;;;;13.07;3.58;;;17.60;99.90;;;;;;5036633;28;20021;-69
2023/07/03 06:53:34;;;;;;;11.73;2.47;;;17.60;99.90;;;;;;5036211;28;20057;-69
2023/07/03 06:56:00;;;;;;;14.75;2.80;;;17.60;99.90;;;;;;5037113;28;20083;-69
2023/07/03 06:58:27;;;;;;;11.23;2.83;;;17.60;99.90;;;;;;5036292;28;20029;-68
2023/07/03 07:00:53;;;;;;;15.77;3.40;;;17.70;99.90;;;;;;5036196;28;20049;-68
2023/07/03 07:03:18;;;;;;;13.73;2.15;;;17.80;99.90;;;;;;5036118;28;20033;-69
2023/07/03 07:05:44;;;;;;;8.88;2.58;;;17.90;99.90;;;;;;5036467;28;20033;-68
2023/07/03 07:08:16;;;;;;;13.50;2.42;;;17.90;99.90;;;;;;5036013;28;20033;-69
2023/07/03 07:10:43;;;;;;;12.85;2.85;;;18.00;99.90;;;;;;5037253;28;20026;-69
2023/07/03 07:13:09;;;;;;;13.23;2.95;;;18.10;99.90;;;;;;5036158;28;20106;-69
2023/07/03 07:15:40;;;;;;;13.75;3.70;;;18.10;99.90;;;;;;5036032;28;20024;-69
2023/07/03 07:18:07;;;;;;;10.90;3.05;;;18.00;99.90;;;;;;5036049;28;20029;-69
2023/07/03 07:20:40;;;;;;;6.03;2.42;;;18.10;99.90;;;;;;5036197;28;20075;-69
2023/07/03 07:23:09;;;;;;;10.00;2.42;;;18.30;99.90;;;;;;5036780;28;20036;-69
2023/07/03 07:25:35;;;;;;;13.27;2.75;;;18.40;99.90;;;;;;5036169;28;20026;-69
2023/07/03 07:28:01;;;;;;;14.48;2.80;;;18.50;99.90;;;;;;5035932;28;20022;-69
2023/07/03 07:30:27;;;;;;;13.70;2.83;;;18.50;99.90;;;;;;5036184;28;20022;-69
2023/07/03 07:32:52;;;;;;;15.85;3.20;;;18.60;99.90;;;;;;5036815;28;20045;-69
2023/07/03 07:35:18;;;;;;;12.52;3.13;;;18.70;99.90;;;;;;5035920;28;20022;-69
2023/07/03 07:37:44;;;;;;;12.10;2.40;;;18.70;99.90;;;;;;5036810;28;20072;-69
2023/07/03 07:40:11;;;;;;;9.18;2.50;;;18.80;99.90;;;;;;5035776;28;20022;-69
2023/07/03 07:42:37;;;;;;;10.25;2.60;;;18.80;99.90;;;;;;5035706;28;20033;-69
2023/07/03 07:45:04;;;;;;;12.88;2.92;;;18.90;99.90;;;;;;5037198;28;20033;-69
2023/07/03 07:47:29;;;;;;;9.45;2.72;;;19.00;99.90;;;;;;5038367;28;20021;-69
2023/07/03 07:49:55;;;;;;;15.43;2.97;;;19.10;99.90;;;;;;5039641;28;20171;-69
2023/07/03 07:52:23;;;;;;;15.05;3.05;;;19.10;99.90;;;;;;5039463;28;20071;-69
2023/07/03 07:54:56;;;;;;;11.68;2.70;;;19.20;99.90;;;;;;5039917;28;20036;-69
2023/07/03 07:57:23;;;;;;;13.00;2.38;;;19.10;99.90;;;;;;5039541;28;20025;-69
2023/07/03 07:59:48;;;;;;;13.70;2.40;;;19.10;99.90;;;;;;5040520;28;20025;-69
2023/07/03 08:02:14;;;;;;;18.33;3.33;;;19.20;99.90;;;;;;5039392;28;20032;-69
2023/07/03 08:04:39;;;;;;;15.82;3.13;;;19.20;99.90;;;;;;5039766;28;20026;-69
2023/07/03 08:07:05;;;;;;;11.88;2.65;;;19.10;99.90;;;;;;5039266;28;20026;-69
2023/07/03 08:09:31;;;;;;;9.60;2.92;;;19.10;99.90;;;;;;5039134;28;20060;-69
2023/07/03 08:11:56;;;;;;;13.43;3.20;;;19.10;99.90;;;;;;5039955;28;20022;-69
2023/07/03 08:14:22;;;;;;;14.05;3.60;;;19.30;99.90;;;;;;5039529;28;20018;-69
2023/07/03 08:16:47;;;;;;;7.38;2.60;;;19.30;99.90;;;;;;5039682;28;20022;-69
2023/07/03 08:19:13;;;;;;;15.40;2.40;;;19.20;99.90;;;;;;5039480;28;20029;-69
2023/07/03 08:21:38;;;;;;;13.93;2.88;;;19.30;99.90;;;;;;5039495;28;20021;-69
2023/07/03 08:24:13;;;;;;;15.07;2.97;;;19.20;99.90;;;;;;5039140;28;20037;-69
2023/07/03 08:26:41;;;;;;;16.75;3.55;;;19.30;99.90;;;;;;5040149;28;20026;-69
2023/07/03 08:29:07;;;;;;;12.25;3.28;;;19.30;99.90;;;;;;5038948;28;20163;-69
2023/07/03 08:31:33;;;;;;;8.30;2.33;;;19.30;99.90;;;;;;5039550;28;20084;-69
2023/07/03 08:33:58;;;;;;;22.92;2.75;;;19.30;99.90;;;;;;5039469;28;20053;-69
2023/07/03 08:36:24;;;;;;;12.23;3.33;;;19.50;99.90;;;;;;5038954;28;20018;-69
2023/07/03 08:38:50;;;;;;;15.60;2.80;;;19.50;99.90;;;;;;5039753;28;20032;-69
2023/07/03 08:41:16;;;;;;;17.58;2.95;;;19.60;99.90;;;;;;5039343;28;20119;-69
2023/07/03 08:43:46;;;;;;;16.10;2.90;;;19.70;99.90;;;;;;5038784;28;20044;-69
2023/07/03 08:46:16;;;;;;;14.68;3.22;;;19.70;99.90;;;;;;5038653;28;20029;-69
2023/07/03 08:48:44;;;;;;;13.90;2.55;;;19.70;99.90;;;;;;5038447;28;20029;-69
2023/07/03 08:51:14;;;;;;;8.05;1.90;;;19.70;99.90;;;;;;5038659;28;20030;-69
2023/07/03 08:53:43;;;;;;;7.95;2.65;;;19.80;99.90;;;;;;5039029;28;20025;-69
2023/07/03 08:56:17;;;;;;;9.88;3.15;;;19.80;99.90;;;;;;5038512;28;20023;-69
2023/07/03 08:58:44;;;;;;;8.27;2.38;;;19.80;99.90;;;;;;5038884;28;20025;-69
2023/07/03 09:01:28;;;;;;;4.97;2.28;;;19.90;99.90;;;;;;5039515;28;20025;-69
2023/07/03 09:04:08;;;;;;;7.10;2.03;;;19.90;99.90;;;;;;5038461;28;20048;-69
2023/07/03 09:06:55;;;;;;;6.47;1.80;;;19.90;99.90;;;;;;5038848;28;20112;-68
2023/07/03 09:09:48;;;;;;;7.18;1.73;;;19.90;99.90;;;;;;5038239;28;20022;-69
2023/07/03 09:12:17;;;;;;;7.32;2.00;;;19.90;99.90;;;;;;5031576;28;20041;-69
2023/07/03 09:14:50;;;;;;;8.73;2.50;;;20.00;99.90;;;;;;5038134;28;20085;-70
2023/07/03 09:17:16;;;;;;;8.48;2.25;;;20.00;99.90;;;;;;5038043;28;20052;-69
2023/07/03 09:19:46;;;;;;;8.25;2.42;;;20.10;99.90;;;;;;5038053;28;20037;-69
2023/07/03 09:22:25;;;;;;;7.00;2.17;;;20.20;99.90;;;;;;5038856;28;20097;-69
2023/07/03 09:24:53;;;;;;;6.13;2.20;;;20.30;99.90;;;;;;5038678;28;20036;-69
2023/07/03 09:27:23;;;;;;;8.18;2.45;;;20.40;99.90;;;;;;5038379;28;20025;-69
2023/07/03 09:29:49;;;;;;;5.82;2.38;;;20.40;99.90;;;;;;5037753;28;20036;-69
2023/07/03 09:32:30;;;;;;;7.38;2.25;;;20.50;99.90;;;;;;5037878;28;20025;-69
2023/07/03 09:35:06;;;;;;;6.15;2.58;;;20.50;99.90;;;;;;5038238;28;20024;-69
2023/07/03 09:37:37;;;;;;;7.93;2.70;;;20.50;99.90;;;;;;5038645;28;20065;-69
2023/07/03 09:40:08;;;;;;;7.25;2.20;;;20.50;99.90;;;;;;5038316;28;20032;-69
2023/07/03 09:42:34;;;;;;;10.55;2.60;;;20.40;99.90;;;;;;5038031;28;20087;-69
2023/07/03 09:45:00;;;;;;;7.43;2.25;;;20.20;99.90;;;;;;5037714;28;20025;-69
2023/07/03 09:47:28;;;;;;;7.82;2.47;;;20.10;99.90;;;;;;5037901;28;20092;-69
2023/07/03 09:50:01;;;;;;;7.88;3.20;;;20.10;99.90;;;;;;5037667;28;20029;-69
2023/07/03 09:52:26;;;;;;;13.10;2.88;;;20.10;99.90;;;;;;5037616;28;20025;-69
2023/07/03 09:54:53;;;;;;;8.50;2.40;;;20.10;99.90;;;;;;5038280;28;20017;-69
2023/07/03 09:57:24;;;;;;;11.30;2.88;;;20.10;99.90;;;;;;5037436;28;20025;-69
2023/07/03 09:59:51;;;;;;;8.05;2.67;;;20.20;99.90;;;;;;5037758;28;20026;-69
2023/07/03 10:02:21;;;;;;;9.23;2.35;;;20.30;99.90;;;;;;5037364;28;20057;-69
2023/07/03 10:04:47;;;;;;;5.18;2.33;;;20.40;99.90;;;;;;5037918;28;20075;-69
2023/07/03 10:07:17;;;;;;;13.50;2.85;;;20.40;99.90;;;;;;5037162;28;20025;-69
2023/07/03 10:09:43;;;;;;;6.55;2.78;;;20.40;99.90;;;;;;5036393;28;20033;-69
2023/07/03 10:12:29;;;;;;;6.72;2.85;;;20.50;99.90;;;;;;5037444;28;20124;-69
2023/07/03 10:15:08;;;;;;;9.88;2.63;;;20.70;99.90;;;;;;5023186;28;20040;-69
2023/07/03 10:17:56;;;;;;;11.70;3.10;;;20.70;99.90;;;;;;5037606;28;20018;-69
2023/07/03 10:20:26;;;;;;;8.93;2.78;;;20.80;99.90;;;;;;5037102;28;20060;-69
2023/07/03 10:22:53;;;;;;;8.20;3.35;;;20.90;99.90;;;;;;5036845;28;20029;-69
2023/07/03 10:25:28;;;;;;;9.52;3.10;;;20.90;99.90;;;;;;5037112;28;20025;-69
2023/07/03 10:27:58;;;;;;;8.73;3.30;;;20.90;99.90;;;;;;5037318;28;20036;-70
2023/07/03 10:30:28;;;;;;;7.70;2.88;;;20.90;99.90;;;;;;5037562;28;20022;-69
2023/07/03 10:32:56;;;;;;;9.75;2.65;;;20.80;99.90;;;;;;5036859;28;20032;-69
2023/07/03 10:35:29;;;;;;;9.88;2.50;;;20.70;99.90;;;;;;5036937;28;20079;-69
2023/07/03 10:38:08;;;;;;;5.88;2.35;;;20.60;99.90;;;;;;5036675;28;20096;-69
2023/07/03 10:40:43;;;;;;;8.88;2.80;;;20.40;99.90;;;;;;5037280;28;20025;-69
2023/07/03 10:43:12;;;;;;;8.98;2.78;;;20.30;99.90;;;;;;5037111;28;20033;-68
2023/07/03 10:45:38;;;;;;;9.98;2.55;;;20.30;99.90;;;;;;5036865;28;20030;-69
2023/07/03 10:48:12;;;;;;;12.93;3.33;;;20.30;99.90;;;;;;5036328;28;20117;-69
2023/07/03 10:51:03;;;;;;;16.58;4.15;;;20.40;99.90;;;;;;5036388;28;20017;-68
2023/07/03 10:53:52;;;;;;;12.63;2.85;;;20.40;99.90;;;;;;5036293;28;20022;-68
2023/07/03 10:56:43;;;;;;;7.80;2.50;;;20.30;99.90;;;;;;5036639;28;20021;-68
2023/07/03 10:59:22;;;;;;;8.30;2.30;;;20.30;99.90;;;;;;5036159;28;20059;-67
2023/07/03 11:01:54;;;;;;;12.15;2.83;;;20.40;99.90;;;;;;5037119;28;20052;-68
2023/07/03 11:04:25;;;;;;;5.85;2.35;;;20.40;99.90;;;;;;5038249;28;20053;-68
2023/07/03 11:06:57;;;;;;;;;;;20.50;99.90;;;;;;5037335;28;20032;-67
2023/07/03 11:09:35;;;;;;;;;;;20.70;99.90;;;;;;5036903;28;19913;-68
2023/07/03 11:12:08;;;;;;;10.95;3.40;;;20.80;99.90;;;;;;5037146;28;19905;-67
2023/07/03 11:14:39;;;;;;;14.13;3.38;;;20.80;99.90;;;;;;5036007;28;20076;-68
2023/07/03 11:17:38;;;;;;;12.25;3.33;;;20.90;99.90;;;;;;5036330;28;20083;-67
2023/07/03 11:20:20;;;;;;;6.35;3.17;;;20.80;99.90;;;;;;5038063;28;20057;-67
2023/07/03 11:22:54;;;;;;;11.07;3.15;;;20.60;99.90;;;;;;5043211;28;20060;-67
2023/07/03 11:26:15;;;;;;;7.95;2.65;;;20.50;99.90;;;;;;5042656;28;20032;-67
2023/07/03 11:28:49;;;;;;;8.70;2.63;;;20.50;99.90;;;;;;4966940;28;20031;-68
2023/07/03 11:31:16;;;;;;;9.15;2.95;;;20.50;99.90;;;;;;4966694;28;20026;-67
2023/07/03 11:33:42;;;;;;;9.48;3.42;;;20.70;99.90;;;;;;4966893;28;20116;-67
2023/07/03 11:36:36;;;;;;;9.43;3.20;;;21.10;99.90;;;;;;4966994;28;20030;-68
2023/07/03 11:39:15;;;;;;;10.35;4.05;;;21.60;99.90;;;;;;4966541;28;20117;-68
2023/07/03 11:42:05;;;;;;;9.80;3.88;;;22.20;99.90;;;;;;4967211;28;20031;-67
2023/07/03 11:44:42;;;;;;;11.23;4.32;;;23.30;99.90;;;;;;4961949;28;20046;-68
2023/07/03 11:47:13;;;;;;;13.60;3.70;;;23.90;99.90;;;;;;4966809;28;20054;-68
2023/07/03 11:50:02;;;;;;;;;;;25.00;99.90;;;;;;4966938;28;20027;-68
2023/07/03 11:52:35;;;;;;;10.00;3.15;;;25.80;99.90;;;;;;4975216;28;19906;-68
2023/07/03 11:55:15;;;;;;;10.77;3.45;;;26.10;97.20;;;;;;4967093;28;20023;-67
2023/07/03 11:57:44;;;;;;;9.25;3.08;;;26.00;97.00;;;;;;4966699;28;20023;-68
2023/07/03 12:00:22;;;;;;;7.97;3.58;;;26.10;96.40;;;;;;5036279;28;20060;-68
2023/07/03 12:02:48;;;;;;;14.38;4.53;;;26.70;94.90;;;;;;5042218;28;20028;-68
2023/07/03 12:05:42;;;;;;;9.10;3.45;;;26.60;92.50;;;;;;5043353;28;20018;-68
2023/07/03 12:08:17;;;;;;;11.70;3.28;;;25.90;93.60;;;;;;5041954;28;20032;-68
2023/07/03 12:10:46;;;;;;;9.75;3.58;;;25.90;92.70;;;;;;5042366;28;20101;-68
2023/07/03 12:13:35;;;;;;;7.05;2.90;;;26.00;93.60;;;;;;5042356;28;20025;-68
2023/07/03 12:16:26;;;;;;;9.30;3.78;;;26.10;91.80;;;;;;5042791;28;20017;-68
2023/07/03 12:19:01;;;;;;;9.10;3.50;;;25.70;92.20;;;;;;5041766;28;20096;-68
2023/07/03 12:21:37;;;;;;;10.68;3.80;;;25.20;93.10;;;;;;5042137;28;20086;-68
2023/07/03 12:24:23;;;;;;;12.60;4.30;;;24.90;93.40;;;;;;5042268;28;20036;-68
2023/07/03 12:27:00;;;;;;;8.80;3.10;;;24.50;93.30;;;;;;5043126;28;20028;-68
2023/07/03 12:29:26;;;;;;;7.50;3.47;;;24.30;93.00;;;;;;5042075;28;20025;-68
2023/07/03 12:32:07;;;;;;;7.43;2.90;;;24.50;92.60;;;;;;5040171;28;20021;-68
2023/07/03 12:34:35;;;;;;;9.82;3.00;;;24.60;91.80;;;;;;5039775;28;20021;-68
2023/07/03 12:37:13;;;;;;;8.20;2.92;;;24.30;91.00;;;;;;5039010;28;20049;-68
2023/07/03 12:39:42;;;;;;;7.63;2.95;;;24.20;90.90;;;;;;5039546;28;20025;-68
2023/07/03 12:42:10;;;;;;;7.85;2.90;;;24.10;90.10;;;;;;5038776;28;20025;-69
2023/07/03 12:44:36;;;;;;;7.60;3.38;;;24.00;91.00;;;;;;5039558;28;20041;-68
2023/07/03 12:47:16;;;;;;;6.95;2.80;;;24.20;91.10;;;;;;5038833;28;20021;-68
2023/07/03 12:49:55;;;;;;;9.77;3.53;;;24.20;91.00;;;;;;5038527;28;20087;-68
2023/07/03 12:52:25;;;;;;;10.32;3.13;;;24.00;91.10;;;;;;5039279;28;20036;-68